sensor_id;sensor_type;location;lat;lon;timestamp;pressure;altitude;pressure_sealevel;temperature;humidity
10466;BME280;5280;42.600;23.556;2022-10-16T00:01:26;94030.47;;;10.63;79.28
10466;BME280;5280;42.600;23.556;2022-10-16T00:03:53;94027.91;;;10.62;79.44
10466;BME280;5280;42.600;23.556;2022-10-16T00:06:21;94016.91;;;10.43;79.76
10466;BME280;5280;42.600;23.556;2022-10-16T00:08:49;94037.44;;;10.52;79.92
10466;BME280;5280;42.600;23.556;2022-10-16T00:11:19;94037.88;;;10.46;80.02
10466;BME280;5280;42.600;23.556;2022-10-16T00:13:47;94040.91;;;10.40;80.85
10466;BME280;5280;42.600;23.556;2022-10-16T00:16:15;94041.25;;;10.35;80.89
10466;BME280;5280;42.600;23.556;2022-10-16T00:18:42;94043.44;;;10.28;80.79
10466;BME280;5280;42.600;23.556;2022-10-16T00:21:12;94039.00;;;10.29;81.60
10466;BME280;5280;42.600;23.556;2022-10-16T00:23:39;94042.47;;;10.17;81.78
10466;BME280;5280;42.600;23.556;2022-10-16T00:26:08;94022.75;;;10.08;81.63
10466;BME280;5280;42.600;23.556;2022-10-16T00:28:36;94047.16;;;10.12;82.20
10466;BME280;5280;42.600;23.556;2022-10-16T00:31:04;93990.88;;;9.59;82.58
10466;BME280;5280;42.600;23.556;2022-10-16T00:33:32;94059.97;;;10.05;82.94
10466;BME280;5280;42.600;23.556;2022-10-16T00:35:58;94060.34;;;9.99;83.29
10466;BME280;5280;42.600;23.556;2022-10-16T00:38:25;94057.72;;;9.99;83.58
10466;BME280;5280;42.600;23.556;2022-10-16T00:40:52;94058.56;;;10.00;84.06
10466;BME280;5280;42.600;23.556;2022-10-16T00:43:39;94050.41;;;9.90;83.99
10466;BME280;5280;42.600;23.556;2022-10-16T00:46:13;94063.47;;;9.91;84.28
10466;BME280;5280;42.600;23.556;2022-10-16T00:48:42;94048.66;;;9.76;84.49
10466;BME280;5280;42.600;23.556;2022-10-16T00:51:12;94053.44;;;9.84;84.46
10466;BME280;5280;42.600;23.556;2022-10-16T00:53:39;94047.72;;;9.77;84.83
10466;BME280;5280;42.600;23.556;2022-10-16T00:56:06;94059.34;;;9.87;85.05
10466;BME280;5280;42.600;23.556;2022-10-16T00:58:33;94045.91;;;9.78;84.98
10466;BME280;5280;42.600;23.556;2022-10-16T01:01:01;94067.50;;;9.84;84.31
10466;BME280;5280;42.600;23.556;2022-10-16T01:03:30;94043.34;;;9.64;84.85
10466;BME280;5280;42.600;23.556;2022-10-16T01:06:18;94071.69;;;9.74;85.02
10466;BME280;5280;42.600;23.556;2022-10-16T01:08:57;94070.06;;;9.72;84.64
10466;BME280;5280;42.600;23.556;2022-10-16T01:11:31;94070.38;;;9.67;85.40
10466;BME280;5280;42.600;23.556;2022-10-16T01:14:04;94064.66;;;9.61;85.96
10466;BME280;5280;42.600;23.556;2022-10-16T01:16:37;94060.63;;;9.55;85.94
10466;BME280;5280;42.600;23.556;2022-10-16T01:19:11;94064.69;;;9.46;86.80
10466;BME280;5280;42.600;23.556;2022-10-16T01:21:41;94072.22;;;9.52;86.83
10466;BME280;5280;42.600;23.556;2022-10-16T01:24:17;94044.28;;;9.36;87.23
10466;BME280;5280;42.600;23.556;2022-10-16T01:27:10;94067.13;;;9.49;87.77
10466;BME280;5280;42.600;23.556;2022-10-16T01:29:42;94061.47;;;9.41;88.08
10466;BME280;5280;42.600;23.556;2022-10-16T01:32:16;94065.66;;;9.45;88.38
10466;BME280;5280;42.600;23.556;2022-10-16T01:34:49;94056.88;;;9.45;88.46
10466;BME280;5280;42.600;23.556;2022-10-16T01:37:25;94059.59;;;9.43;88.34
10466;BME280;5280;42.600;23.556;2022-10-16T01:39:58;94002.91;;;9.10;88.06
10466;BME280;5280;42.600;23.556;2022-10-16T01:42:32;94060.81;;;9.52;88.12
10466;BME280;5280;42.600;23.556;2022-10-16T01:45:02;94055.53;;;9.52;87.78
10466;BME280;5280;42.600;23.556;2022-10-16T01:47:32;94058.47;;;9.47;87.59
10466;BME280;5280;42.600;23.556;2022-10-16T01:50:03;94048.84;;;9.46;87.22
10466;BME280;5280;42.600;23.556;2022-10-16T01:52:32;94060.16;;;9.48;86.21
10466;BME280;5280;42.600;23.556;2022-10-16T01:55:02;94066.28;;;9.49;87.36
10466;BME280;5280;42.600;23.556;2022-10-16T01:57:32;94062.59;;;9.51;86.49
10466;BME280;5280;42.600;23.556;2022-10-16T02:00:07;94045.13;;;9.36;87.13
10466;BME280;5280;42.600;23.556;2022-10-16T02:02:35;94056.97;;;9.43;86.50
10466;BME280;5280;42.600;23.556;2022-10-16T02:05:09;94061.91;;;9.35;86.12
10466;BME280;5280;42.600;23.556;2022-10-16T02:07:37;94068.41;;;9.30;87.00
10466;BME280;5280;42.600;23.556;2022-10-16T02:10:05;94072.03;;;9.41;85.18
10466;BME280;5280;42.600;23.556;2022-10-16T02:12:36;94042.50;;;9.22;86.58
10466;BME280;5280;42.600;23.556;2022-10-16T02:15:06;94042.25;;;9.13;86.90
10466;BME280;5280;42.600;23.556;2022-10-16T02:17:33;94068.88;;;9.36;86.18
10466;BME280;5280;42.600;23.556;2022-10-16T02:20:00;94018.81;;;9.08;85.65
10466;BME280;5280;42.600;23.556;2022-10-16T02:22:28;94065.38;;;9.36;85.56
10466;BME280;5280;42.600;23.556;2022-10-16T02:24:59;94081.78;;;9.41;85.19
10466;BME280;5280;42.600;23.556;2022-10-16T02:27:34;94090.91;;;9.35;84.81
10466;BME280;5280;42.600;23.556;2022-10-16T02:30:08;94082.88;;;9.37;84.99
10466;BME280;5280;42.600;23.556;2022-10-16T02:32:41;94069.56;;;9.26;84.64
10466;BME280;5280;42.600;23.556;2022-10-16T02:35:09;94085.16;;;9.29;84.86
10466;BME280;5280;42.600;23.556;2022-10-16T02:37:38;94100.78;;;9.32;85.25
10466;BME280;5280;42.600;23.556;2022-10-16T02:40:08;94097.22;;;9.33;85.01
10466;BME280;5280;42.600;23.556;2022-10-16T02:42:38;94099.28;;;9.28;84.63
10466;BME280;5280;42.600;23.556;2022-10-16T02:45:07;94092.59;;;9.22;85.29
10466;BME280;5280;42.600;23.556;2022-10-16T02:47:34;94089.13;;;9.22;84.40
10466;BME280;5280;42.600;23.556;2022-10-16T02:50:04;94070.59;;;9.09;84.06
10466;BME280;5280;42.600;23.556;2022-10-16T02:52:31;94119.53;;;9.27;84.54
10466;BME280;5280;42.600;23.556;2022-10-16T02:54:58;94107.69;;;9.20;84.92
10466;BME280;5280;42.600;23.556;2022-10-16T02:57:24;94091.69;;;9.09;85.16
10466;BME280;5280;42.600;23.556;2022-10-16T02:59:53;94102.25;;;9.09;85.21
10466;BME280;5280;42.600;23.556;2022-10-16T03:02:19;94110.16;;;9.09;85.60
10466;BME280;5280;42.600;23.556;2022-10-16T03:04:46;94110.34;;;9.06;86.16
10466;BME280;5280;42.600;23.556;2022-10-16T03:07:13;94114.84;;;9.04;86.42
10466;BME280;5280;42.600;23.556;2022-10-16T03:09:40;94121.06;;;9.03;86.52
10466;BME280;5280;42.600;23.556;2022-10-16T03:12:07;94110.72;;;9.00;85.85
10466;BME280;5280;42.600;23.556;2022-10-16T03:14:34;94114.28;;;8.99;86.84
10466;BME280;5280;42.600;23.556;2022-10-16T03:17:02;94123.72;;;8.89;87.53
10466;BME280;5280;42.600;23.556;2022-10-16T03:19:29;94106.56;;;8.82;86.86
10466;BME280;5280;42.600;23.556;2022-10-16T03:21:56;94119.28;;;8.89;87.59
10466;BME280;5280;42.600;23.556;2022-10-16T03:24:22;94122.00;;;8.88;87.92
10466;BME280;5280;42.600;23.556;2022-10-16T03:26:49;94115.31;;;8.82;87.30
10466;BME280;5280;42.600;23.556;2022-10-16T03:29:16;94107.97;;;8.73;88.43
10466;BME280;5280;42.600;23.556;2022-10-16T03:31:43;94129.72;;;8.77;89.23
10466;BME280;5280;42.600;23.556;2022-10-16T03:34:11;94128.03;;;8.76;89.67
10466;BME280;5280;42.600;23.556;2022-10-16T03:36:37;94123.50;;;8.78;89.06
10466;BME280;5280;42.600;23.556;2022-10-16T03:39:04;94122.00;;;8.74;89.84
10466;BME280;5280;42.600;23.556;2022-10-16T03:41:31;94127.84;;;8.79;90.20
10466;BME280;5280;42.600;23.556;2022-10-16T03:43:58;94109.94;;;8.70;89.96
10466;BME280;5280;42.600;23.556;2022-10-16T03:46:25;94113.53;;;8.69;89.87
10466;BME280;5280;42.600;23.556;2022-10-16T03:48:51;94122.19;;;8.71;90.55
10466;BME280;5280;42.600;23.556;2022-10-16T03:51:20;94127.53;;;8.69;90.39
10466;BME280;5280;42.600;23.556;2022-10-16T03:53:47;94102.59;;;8.60;90.08
10466;BME280;5280;42.600;23.556;2022-10-16T03:56:13;94106.47;;;8.69;90.18
10466;BME280;5280;42.600;23.556;2022-10-16T03:58:41;94101.41;;;8.66;90.36
10466;BME280;5280;42.600;23.556;2022-10-16T04:01:08;94090.66;;;8.55;90.76
10466;BME280;5280;42.600;23.556;2022-10-16T04:03:34;94111.25;;;8.62;91.29
10466;BME280;5280;42.600;23.556;2022-10-16T04:06:01;94112.94;;;8.63;91.48
10466;BME280;5280;42.600;23.556;2022-10-16T04:08:29;94101.09;;;8.56;90.17
10466;BME280;5280;42.600;23.556;2022-10-16T04:10:59;94127.91;;;8.63;89.35
10466;BME280;5280;42.600;23.556;2022-10-16T04:13:26;94122.53;;;8.50;90.23
10466;BME280;5280;42.600;23.556;2022-10-16T04:15:53;94125.91;;;8.52;89.66
10466;BME280;5280;42.600;23.556;2022-10-16T04:18:19;94130.09;;;8.56;90.42
10466;BME280;5280;42.600;23.556;2022-10-16T04:20:47;94126.47;;;8.57;90.91
10466;BME280;5280;42.600;23.556;2022-10-16T04:23:13;94119.44;;;8.58;90.36
10466;BME280;5280;42.600;23.556;2022-10-16T04:25:42;94115.56;;;8.49;90.74
10466;BME280;5280;42.600;23.556;2022-10-16T04:28:08;94121.41;;;8.54;90.53
10466;BME280;5280;42.600;23.556;2022-10-16T04:30:37;94123.38;;;8.51;90.43
10466;BME280;5280;42.600;23.556;2022-10-16T04:33:04;94123.75;;;8.45;90.87
10466;BME280;5280;42.600;23.556;2022-10-16T04:35:33;94109.69;;;8.30;90.80
10466;BME280;5280;42.600;23.556;2022-10-16T04:38:00;94069.09;;;8.18;90.51
10466;BME280;5280;42.600;23.556;2022-10-16T04:40:27;94135.72;;;8.50;90.76
10466;BME280;5280;42.600;23.556;2022-10-16T04:42:55;94140.28;;;8.47;91.37
10466;BME280;5280;42.600;23.556;2022-10-16T04:45:22;94141.34;;;8.44;91.30
10466;BME280;5280;42.600;23.556;2022-10-16T04:47:49;94148.03;;;8.50;90.15
10466;BME280;5280;42.600;23.556;2022-10-16T04:50:16;94088.66;;;8.14;91.02
10466;BME280;5280;42.600;23.556;2022-10-16T04:52:43;94139.06;;;8.38;91.40
10466;BME280;5280;42.600;23.556;2022-10-16T04:55:09;94085.34;;;8.11;91.50
10466;BME280;5280;42.600;23.556;2022-10-16T04:57:36;94131.91;;;8.40;91.08
10466;BME280;5280;42.600;23.556;2022-10-16T05:00:05;94153.00;;;8.40;91.72
10466;BME280;5280;42.600;23.556;2022-10-16T05:02:33;94147.06;;;8.37;91.06
10466;BME280;5280;42.600;23.556;2022-10-16T05:05:00;94160.03;;;8.40;91.18
10466;BME280;5280;42.600;23.556;2022-10-16T05:07:27;94159.19;;;8.39;91.40
10466;BME280;5280;42.600;23.556;2022-10-16T05:09:54;94160.47;;;8.32;91.97
10466;BME280;5280;42.600;23.556;2022-10-16T05:12:20;94146.22;;;8.20;91.77
10466;BME280;5280;42.600;23.556;2022-10-16T05:14:47;94129.91;;;8.14;91.56
10466;BME280;5280;42.600;23.556;2022-10-16T05:17:15;94168.47;;;8.31;92.38
10466;BME280;5280;42.600;23.556;2022-10-16T05:19:42;94167.63;;;8.30;92.82
10466;BME280;5280;42.600;23.556;2022-10-16T05:22:09;94142.16;;;8.15;93.79
10466;BME280;5280;42.600;23.556;2022-10-16T05:24:36;94172.81;;;8.32;94.77
10466;BME280;5280;42.600;23.556;2022-10-16T05:27:03;94173.63;;;8.32;94.10
10466;BME280;5280;42.600;23.556;2022-10-16T05:29:30;94174.59;;;8.31;93.90
10466;BME280;5280;42.600;23.556;2022-10-16T05:31:57;94177.03;;;8.34;94.87
10466;BME280;5280;42.600;23.556;2022-10-16T05:34:25;94184.75;;;8.37;95.41
10466;BME280;5280;42.600;23.556;2022-10-16T05:36:54;94186.31;;;8.41;94.19
10466;BME280;5280;42.600;23.556;2022-10-16T05:39:21;94180.53;;;8.35;93.84
10466;BME280;5280;42.600;23.556;2022-10-16T05:41:49;94193.25;;;8.42;93.83
10466;BME280;5280;42.600;23.556;2022-10-16T05:44:16;94174.72;;;8.28;94.40
10466;BME280;5280;42.600;23.556;2022-10-16T05:46:43;94189.78;;;8.42;94.33
10466;BME280;5280;42.600;23.556;2022-10-16T05:49:10;94197.78;;;8.40;94.56
10466;BME280;5280;42.600;23.556;2022-10-16T05:51:38;94182.22;;;8.36;95.44
10466;BME280;5280;42.600;23.556;2022-10-16T05:54:05;94190.53;;;8.44;95.24
10466;BME280;5280;42.600;23.556;2022-10-16T05:56:32;94199.09;;;8.47;95.80
10466;BME280;5280;42.600;23.556;2022-10-16T05:59:02;94198.16;;;8.48;96.64
10466;BME280;5280;42.600;23.556;2022-10-16T06:01:29;94198.16;;;8.48;96.64
10466;BME280;5280;42.600;23.556;2022-10-16T06:03:57;94186.63;;;8.51;97.46
10466;BME280;5280;42.600;23.556;2022-10-16T06:06:26;94203.75;;;8.58;97.74
10466;BME280;5280;42.600;23.556;2022-10-16T06:08:56;94195.94;;;8.56;98.82
10466;BME280;5280;42.600;23.556;2022-10-16T06:11:26;94205.25;;;8.62;98.28
10466;BME280;5280;42.600;23.556;2022-10-16T06:13:55;94193.31;;;8.56;98.34
10466;BME280;5280;42.600;23.556;2022-10-16T06:16:23;94207.81;;;8.63;98.63
10466;BME280;5280;42.600;23.556;2022-10-16T06:18:51;94198.13;;;8.64;99.06
10466;BME280;5280;42.600;23.556;2022-10-16T06:21:19;94226.28;;;8.78;99.09
10466;BME280;5280;42.600;23.556;2022-10-16T06:23:47;94231.56;;;8.78;98.91
10466;BME280;5280;42.600;23.556;2022-10-16T06:26:19;94209.16;;;8.71;99.22
10466;BME280;5280;42.600;23.556;2022-10-16T06:28:56;94231.69;;;8.90;99.74
10466;BME280;5280;42.600;23.556;2022-10-16T06:31:24;94226.22;;;8.93;100.00
10466;BME280;5280;42.600;23.556;2022-10-16T06:33:54;94226.88;;;8.97;100.00
10466;BME280;5280;42.600;23.556;2022-10-16T06:36:22;94240.28;;;9.08;100.00
10466;BME280;5280;42.600;23.556;2022-10-16T06:38:49;94243.69;;;9.10;100.00
10466;BME280;5280;42.600;23.556;2022-10-16T06:41:18;94245.78;;;9.19;100.00
10466;BME280;5280;42.600;23.556;2022-10-16T06:43:46;94249.19;;;9.21;100.00
10466;BME280;5280;42.600;23.556;2022-10-16T06:46:14;94222.69;;;9.08;100.00
10466;BME280;5280;42.600;23.556;2022-10-16T06:48:42;94219.50;;;9.18;100.00
10466;BME280;5280;42.600;23.556;2022-10-16T06:51:11;94237.22;;;9.30;100.00
10466;BME280;5280;42.600;23.556;2022-10-16T06:53:41;94261.72;;;9.46;100.00
10466;BME280;5280;42.600;23.556;2022-10-16T06:56:10;94258.53;;;9.41;100.00
10466;BME280;5280;42.600;23.556;2022-10-16T06:58:39;94261.81;;;9.59;100.00
10466;BME280;5280;42.600;23.556;2022-10-16T07:01:06;94267.59;;;9.65;100.00
10466;BME280;5280;42.600;23.556;2022-10-16T07:03:36;94251.81;;;9.64;100.00
10466;BME280;5280;42.600;23.556;2022-10-16T07:06:04;94271.34;;;9.75;100.00
10466;BME280;5280;42.600;23.556;2022-10-16T07:08:32;94265.66;;;9.81;100.00
10466;BME280;5280;42.600;23.556;2022-10-16T07:10:59;94242.19;;;9.77;100.00
10466;BME280;5280;42.600;23.556;2022-10-16T07:13:27;94274.25;;;9.99;100.00
10466;BME280;5280;42.600;23.556;2022-10-16T07:15:55;94255.75;;;9.99;100.00
10466;BME280;5280;42.600;23.556;2022-10-16T07:18:22;94271.22;;;10.05;100.00
10466;BME280;5280;42.600;23.556;2022-10-16T07:20:52;94282.16;;;10.13;100.00
10466;BME280;5280;42.600;23.556;2022-10-16T07:23:20;94266.13;;;10.16;100.00
10466;BME280;5280;42.600;23.556;2022-10-16T07:25:54;94267.22;;;10.26;99.27
10466;BME280;5280;42.600;23.556;2022-10-16T07:28:21;94270.13;;;10.50;98.03
10466;BME280;5280;42.600;23.556;2022-10-16T07:30:48;94240.50;;;10.45;97.32
10466;BME280;5280;42.600;23.556;2022-10-16T07:33:16;94270.22;;;10.75;98.73
10466;BME280;5280;42.600;23.556;2022-10-16T07:35:50;94239.38;;;10.62;97.65
10466;BME280;5280;42.600;23.556;2022-10-16T07:38:18;94273.75;;;11.01;95.92
10466;BME280;5280;42.600;23.556;2022-10-16T07:40:45;94214.00;;;10.59;94.22
10466;BME280;5280;42.600;23.556;2022-10-16T07:43:11;94274.66;;;11.14;92.31
10466;BME280;5280;42.600;23.556;2022-10-16T07:45:46;94260.88;;;11.22;92.19
10466;BME280;5280;42.600;23.556;2022-10-16T07:48:13;94272.56;;;11.45;89.47
10466;BME280;5280;42.600;23.556;2022-10-16T07:50:42;94207.97;;;11.09;90.43
10466;BME280;5280;42.600;23.556;2022-10-16T07:53:09;94278.91;;;11.68;90.15
10466;BME280;5280;42.600;23.556;2022-10-16T07:55:36;94277.03;;;11.82;88.00
10466;BME280;5280;42.600;23.556;2022-10-16T07:58:03;94278.22;;;11.78;86.59
10466;BME280;5280;42.600;23.556;2022-10-16T08:00:31;94266.88;;;11.89;86.82
10466;BME280;5280;42.600;23.556;2022-10-16T08:02:58;94272.38;;;11.98;85.47
10466;BME280;5280;42.600;23.556;2022-10-16T08:05:25;94280.84;;;12.03;82.77
10466;BME280;5280;42.600;23.556;2022-10-16T08:07:54;94273.50;;;12.20;82.48
10466;BME280;5280;42.600;23.556;2022-10-16T08:10:22;94283.97;;;12.34;82.03
10466;BME280;5280;42.600;23.556;2022-10-16T08:12:50;94278.34;;;12.38;81.05
10466;BME280;5280;42.600;23.556;2022-10-16T08:15:17;94214.38;;;12.06;80.03
10466;BME280;5280;42.600;23.556;2022-10-16T08:17:44;94262.72;;;12.46;79.57
10466;BME280;5280;42.600;23.556;2022-10-16T08:20:11;94293.16;;;12.77;78.10
10466;BME280;5280;42.600;23.556;2022-10-16T08:22:37;94278.69;;;12.81;76.89
10466;BME280;5280;42.600;23.556;2022-10-16T08:25:06;94282.44;;;13.03;75.89
10466;BME280;5280;42.600;23.556;2022-10-16T08:27:33;94230.69;;;12.73;75.48
10466;BME280;5280;42.600;23.556;2022-10-16T08:30:00;94261.81;;;13.06;74.43
10466;BME280;5280;42.600;23.556;2022-10-16T08:32:29;94209.28;;;12.87;75.09
10466;BME280;5280;42.600;23.556;2022-10-16T08:34:56;94274.59;;;13.25;74.22
10466;BME280;5280;42.600;23.556;2022-10-16T08:37:23;94265.44;;;13.40;73.00
10466;BME280;5280;42.600;23.556;2022-10-16T08:39:50;94218.91;;;13.12;73.17
10466;BME280;5280;42.600;23.556;2022-10-16T08:42:32;94264.41;;;13.54;74.00
10466;BME280;5280;42.600;23.556;2022-10-16T08:45:15;94272.13;;;13.57;73.66
10466;BME280;5280;42.600;23.556;2022-10-16T08:47:49;94283.88;;;13.76;71.46
10466;BME280;5280;42.600;23.556;2022-10-16T08:50:22;94284.88;;;13.87;71.04
10466;BME280;5280;42.600;23.556;2022-10-16T08:52:51;94281.63;;;13.94;69.17
10466;BME280;5280;42.600;23.556;2022-10-16T08:55:30;94262.78;;;13.97;68.50
10466;BME280;5280;42.600;23.556;2022-10-16T08:57:59;94280.19;;;14.12;68.70
10466;BME280;5280;42.600;23.556;2022-10-16T09:00:26;94280.28;;;14.22;67.66
10466;BME280;5280;42.600;23.556;2022-10-16T09:03:02;94279.69;;;14.30;67.70
10466;BME280;5280;42.600;23.556;2022-10-16T09:05:45;94281.25;;;14.32;68.23
10466;BME280;5280;42.600;23.556;2022-10-16T09:08:23;94264.97;;;14.37;68.38
10466;BME280;5280;42.600;23.556;2022-10-16T09:10:58;94275.34;;;14.62;67.25
10466;BME280;5280;42.600;23.556;2022-10-16T09:13:35;94272.16;;;14.79;65.42
10466;BME280;5280;42.600;23.556;2022-10-16T09:16:13;94272.75;;;14.83;63.84
10466;BME280;5280;42.600;23.556;2022-10-16T09:18:47;94287.84;;;14.93;63.79
10466;BME280;5280;42.600;23.556;2022-10-16T09:21:19;94284.38;;;14.82;62.08
10466;BME280;5280;42.600;23.556;2022-10-16T09:23:48;94284.53;;;15.01;62.40
10466;BME280;5280;42.600;23.556;2022-10-16T09:26:16;94273.97;;;15.11;62.85
10466;BME280;5280;42.600;23.556;2022-10-16T09:28:46;94277.19;;;15.25;61.21
10466;BME280;5280;42.600;23.556;2022-10-16T09:31:16;94267.44;;;15.15;61.46
10466;BME280;5280;42.600;23.556;2022-10-16T09:33:47;94264.09;;;15.33;61.91
10466;BME280;5280;42.600;23.556;2022-10-16T09:36:14;94274.50;;;15.36;60.90
10466;BME280;5280;42.600;23.556;2022-10-16T09:38:41;94271.66;;;15.49;59.74
10466;BME280;5280;42.600;23.556;2022-10-16T09:41:17;94230.44;;;15.32;59.98
10466;BME280;5280;42.600;23.556;2022-10-16T09:43:53;94255.78;;;15.59;57.87
10466;BME280;5280;42.600;23.556;2022-10-16T09:46:24;94266.41;;;15.79;57.39
10466;BME280;5280;42.600;23.556;2022-10-16T09:48:54;94267.41;;;15.78;55.02
10466;BME280;5280;42.600;23.556;2022-10-16T09:51:23;94268.31;;;15.88;54.50
10466;BME280;5280;42.600;23.556;2022-10-16T09:53:55;94271.25;;;15.95;55.16
10466;BME280;5280;42.600;23.556;2022-10-16T09:56:25;94267.91;;;15.93;55.94
10466;BME280;5280;42.600;23.556;2022-10-16T09:58:55;94239.69;;;15.70;55.07
10466;BME280;5280;42.600;23.556;2022-10-16T10:01:26;94207.66;;;15.60;54.48
10466;BME280;5280;42.600;23.556;2022-10-16T10:03:56;94261.25;;;16.08;54.59
10466;BME280;5280;42.600;23.556;2022-10-16T10:06:28;94247.34;;;16.14;55.02
10466;BME280;5280;42.600;23.556;2022-10-16T10:08:59;94246.66;;;16.12;54.03
10466;BME280;5280;42.600;23.556;2022-10-16T10:11:44;94246.78;;;16.11;52.77
10466;BME280;5280;42.600;23.556;2022-10-16T10:14:21;94253.19;;;15.99;53.73
10466;BME280;5280;42.600;23.556;2022-10-16T10:16:50;94260.84;;;16.13;53.57
10466;BME280;5280;42.600;23.556;2022-10-16T10:19:18;94242.03;;;16.14;54.04
10466;BME280;5280;42.600;23.556;2022-10-16T10:21:46;94228.69;;;16.14;53.36
10466;BME280;5280;42.600;23.556;2022-10-16T10:24:13;94237.56;;;16.24;53.00
10466;BME280;5280;42.600;23.556;2022-10-16T10:26:47;94231.56;;;16.22;53.22
10466;BME280;5280;42.600;23.556;2022-10-16T10:29:24;94239.69;;;16.21;52.53
10466;BME280;5280;42.600;23.556;2022-10-16T10:32:01;94238.16;;;16.28;53.56
10466;BME280;5280;42.600;23.556;2022-10-16T10:34:42;94190.16;;;15.88;51.81
10466;BME280;5280;42.600;23.556;2022-10-16T10:37:23;94236.47;;;16.27;51.91
10466;BME280;5280;42.600;23.556;2022-10-16T10:39:59;94220.88;;;16.22;52.91
10466;BME280;5280;42.600;23.556;2022-10-16T10:42:31;94219.22;;;16.31;51.08
10466;BME280;5280;42.600;23.556;2022-10-16T10:45:18;94194.03;;;16.14;49.76
10466;BME280;5280;42.600;23.556;2022-10-16T10:48:06;94233.31;;;16.43;49.50
10466;BME280;5280;42.600;23.556;2022-10-16T10:50:41;94235.78;;;16.34;49.69
10466;BME280;5280;42.600;23.556;2022-10-16T10:56:08;94215.81;;;16.29;49.43
10466;BME280;5280;42.600;23.556;2022-10-16T11:01:46;94224.34;;;16.44;48.60
10466;BME280;5280;42.600;23.556;2022-10-16T11:07:26;94213.03;;;16.30;48.24
10466;BME280;5280;42.600;23.556;2022-10-16T11:09:57;94218.00;;;16.45;47.63
10466;BME280;5280;42.600;23.556;2022-10-16T11:12:27;94219.25;;;16.41;47.69
10466;BME280;5280;42.600;23.556;2022-10-16T11:15:00;94193.38;;;16.22;46.87
10466;BME280;5280;42.600;23.556;2022-10-16T11:17:32;94212.50;;;16.36;46.77
10466;BME280;5280;42.600;23.556;2022-10-16T11:20:10;94194.25;;;16.32;47.04
10466;BME280;5280;42.600;23.556;2022-10-16T11:22:40;94209.97;;;16.45;47.81
10466;BME280;5280;42.600;23.556;2022-10-16T11:25:13;94203.13;;;16.42;47.29
10466;BME280;5280;42.600;23.556;2022-10-16T11:27:45;94207.75;;;16.50;48.00
10466;BME280;5280;42.600;23.556;2022-10-16T11:30:16;94205.38;;;16.47;47.11
10466;BME280;5280;42.600;23.556;2022-10-16T11:33:02;94196.94;;;16.42;47.52
10466;BME280;5280;42.600;23.556;2022-10-16T11:35:38;94203.81;;;16.54;47.44
10466;BME280;5280;42.600;23.556;2022-10-16T11:38:10;94206.13;;;16.58;46.61
10466;BME280;5280;42.600;23.556;2022-10-16T11:40:41;94199.66;;;16.61;47.31
10466;BME280;5280;42.600;23.556;2022-10-16T11:43:13;94162.22;;;16.32;46.38
10466;BME280;5280;42.600;23.556;2022-10-16T11:45:43;94200.94;;;16.66;46.78
10466;BME280;5280;42.600;23.556;2022-10-16T11:48:23;94201.03;;;16.55;46.80
10466;BME280;5280;42.600;23.556;2022-10-16T11:50:53;94137.66;;;16.28;45.37
10466;BME280;5280;42.600;23.556;2022-10-16T11:53:35;94204.75;;;16.73;45.15
10466;BME280;5280;42.600;23.556;2022-10-16T11:56:05;94194.47;;;16.69;45.23
10466;BME280;5280;42.600;23.556;2022-10-16T11:58:36;94204.34;;;16.78;45.42
10466;BME280;5280;42.600;23.556;2022-10-16T12:01:17;94203.50;;;16.77;45.08
10466;BME280;5280;42.600;23.556;2022-10-16T12:03:52;94205.31;;;16.77;45.67
10466;BME280;5280;42.600;23.556;2022-10-16T12:06:30;94207.72;;;16.80;45.98
10466;BME280;5280;42.600;23.556;2022-10-16T12:08:59;94210.97;;;16.84;45.88
10466;BME280;5280;42.600;23.556;2022-10-16T12:11:38;94215.88;;;16.88;46.08
10466;BME280;5280;42.600;23.556;2022-10-16T12:14:07;94207.03;;;16.88;46.22
10466;BME280;5280;42.600;23.556;2022-10-16T12:16:51;94202.66;;;16.77;45.73
10466;BME280;5280;42.600;23.556;2022-10-16T12:19:21;94197.16;;;16.69;45.95
10466;BME280;5280;42.600;23.556;2022-10-16T12:21:50;94194.34;;;16.80;45.05
10466;BME280;5280;42.600;23.556;2022-10-16T12:24:31;94197.63;;;16.84;45.85
10466;BME280;5280;42.600;23.556;2022-10-16T12:26:59;94207.72;;;16.90;46.36
10466;BME280;5280;42.600;23.556;2022-10-16T12:29:33;94200.00;;;16.87;44.73
10466;BME280;5280;42.600;23.556;2022-10-16T12:32:01;94223.59;;;16.91;45.35
10466;BME280;5280;42.600;23.556;2022-10-16T12:34:37;94202.97;;;16.93;45.22
10466;BME280;5280;42.600;23.556;2022-10-16T12:37:11;94207.72;;;16.99;45.43
10466;BME280;5280;42.600;23.556;2022-10-16T12:39:39;94210.81;;;16.95;46.14
10466;BME280;5280;42.600;23.556;2022-10-16T12:42:21;94193.38;;;16.81;45.73
10466;BME280;5280;42.600;23.556;2022-10-16T12:44:48;94209.28;;;17.02;45.68
10466;BME280;5280;42.600;23.556;2022-10-16T12:47:22;94207.03;;;16.97;45.74
10466;BME280;5280;42.600;23.556;2022-10-16T12:49:52;94209.00;;;17.05;45.53
10466;BME280;5280;42.600;23.556;2022-10-16T12:52:26;94221.25;;;17.07;45.01
10466;BME280;5280;42.600;23.556;2022-10-16T12:54:56;94218.16;;;17.02;44.34
10466;BME280;5280;42.600;23.556;2022-10-16T12:57:37;94217.00;;;16.95;43.52
10466;BME280;5280;42.600;23.556;2022-10-16T13:00:16;94224.75;;;16.98;42.26
10466;BME280;5280;42.600;23.556;2022-10-16T13:03:00;94209.84;;;16.86;41.93
10466;BME280;5280;42.600;23.556;2022-10-16T13:05:46;94159.63;;;16.61;42.00
10466;BME280;5280;42.600;23.556;2022-10-16T13:08:35;94224.47;;;16.92;40.21
10466;BME280;5280;42.600;23.556;2022-10-16T13:11:11;94213.22;;;16.88;39.27
10466;BME280;5280;42.600;23.556;2022-10-16T13:13:56;94227.00;;;16.93;38.41
10466;BME280;5280;42.600;23.556;2022-10-16T13:16:30;94224.03;;;16.96;38.67
10466;BME280;5280;42.600;23.556;2022-10-16T13:19:10;94223.47;;;17.02;38.00
10466;BME280;5280;42.600;23.556;2022-10-16T13:21:49;94222.50;;;17.03;39.17
10466;BME280;5280;42.600;23.556;2022-10-16T13:24:25;94215.47;;;16.93;40.48
10466;BME280;5280;42.600;23.556;2022-10-16T13:26:58;94211.53;;;16.97;40.03
10466;BME280;5280;42.600;23.556;2022-10-16T13:29:30;94221.66;;;16.93;39.72
10466;BME280;5280;42.600;23.556;2022-10-16T13:31:58;94223.31;;;16.94;39.72